KRID/RID METAR and TAF weather

Enter ICAO airport designator
Station Type Date Time Source
KRID METAR 2024/04/15 09:15 UTC NOAA

KRID 150915Z AUTO 25010KT 10SM CLR 16/12 A2984 RMK AO2


Station Type Date Time Source
KRID Decoded METAR 2024/04/15 09:15 UTC NOAA

Station name not available
Apr 15, 2024 - 05:15 AM EDT / 2024.04.15 0915 UTC
Wind: from the WSW (250 degrees) at 12 MPH (10 KT):0
Visibility: 10 mile(s):0
Sky conditions: clear
Temperature: 60 F (16 C)
Dew Point: 53 F (12 C)
Relative Humidity: 77%
Pressure (altimeter): 29.84 in. Hg (1010 hPa)
ob: KRID 150915Z AUTO 25010KT 10SM CLR 16/12 A2984 RMK AO2
cycle: 9

Station Type Date Time Source
KRID TAF UTC NOAA

Error!

Example: see airport list